ADDS METAR Data INFO
IDs: Format: Raw Decoded Include TAF

Data at: 0442 UTC 24 Apr 2018

KSSF 240353Z AUTO 00000KT 10SM CLR 19/13 A3002 RMK AO2 SLP158 T01890133 $
KSSF 240253Z 12003KT 10SM CLR 22/13 A3000 RMK AO2 RAE0156 SLP152 P0000 60000 T02170128 53016 $
KSSF 240153Z 15003KT 10SM -RA CLR 22/13 A2998 RMK AO2 RAB34 SLP145 P0000 T02220128 $
KSSF 240053Z 15004KT 10SM CLR 26/12 A2996 RMK AO2 SLP138 T02610122 $
KSSF 232353Z 13007KT 10SM CLR 28/12 A2995 RMK AO2 SLP136 T02780122 10294 20256 56017 $
KSSF 232253Z 12006KT 10SM CLR 29/12 A2996 RMK AO2 SLP137 T02890117 $
KSSF 232153Z VRB03KT 10SM CLR 29/12 A2998 RMK AO2 SLP142 T02940117 $
KSSF 232053Z 00000KT 10SM CLR 28/10 A3001 RMK AO2 SLP153 T02830100 58028 $
KSSF 231953Z 11004KT 10SM CLR 28/11 A3004 RMK AO2 SLP164 T02780111 $
KSSF 231853Z VRB03KT 10SM CLR 27/11 A3007 RMK AO2 SLP173 T02670106 $
KSSF 231753Z VRB03KT 10SM CLR 26/10 A3009 RMK AO2 SLP182 T02560100 10261 20133 58012 $
KSSF 231653Z 03003KT 10SM CLR 24/09 A3011 RMK AO2 SLP189 T02440094 $
KSSF 231553Z 00000KT 10SM CLR 22/09 A3012 RMK AO2 SLP193 T02220089 $
KSSF 231453Z 10004KT 10SM CLR 21/09 A3013 RMK AO2 SLP195 T02060094 51015 $
KSSF 231353Z 00000KT 10SM CLR 18/11 A3012 RMK AO2 SLP194 T01780111 $
KSSF 231253Z 00000KT 10SM CLR 15/11 A3012 RMK AO2 SLP193 T01500111 $
KSSF 231153Z 00000KT 10SM CLR 14/11 A3008 RMK AO2 SLP180 T01390106 10161 20128 53018 $
KSSF 231053Z AUTO 00000KT 10SM CLR 15/10 A3005 RMK AO2 SLP170 T01500100 $
KSSF 230953Z AUTO 00000KT 10SM CLR 14/11 A3005 RMK AO2 SLP167 T01440111 $
KSSF 230853Z AUTO 00000KT 10SM CLR 14/11 A3003 RMK AO2 SLP162 T01390111 58007 $
KSSF 230753Z AUTO 00000KT 10SM CLR 14/12 A3004 RMK AO2 SLP165 T01440117 $
KSSF 230653Z AUTO 00000KT 10SM CLR 15/12 A3005 RMK AO2 SLP169 T01500122 $
KSSF 230553Z AUTO 00000KT 10SM CLR 16/12 A3005 RMK AO2 SLP168 T01610122 10267 20156 402830133 51010 $
KSSF 230453Z AUTO 00000KT 10SM CLR 18/13 A3004 RMK AO2 SLP166 T01780128 $
KSSF 230353Z AUTO 10004KT 10SM CLR 19/12 A3003 RMK AO2 SLP162 T01940117 $
KSSF 230253Z 12003KT 10SM CLR 21/12 A3002 RMK AO2 SLP159 T02060122 53016 $
KSSF 230153Z 11004KT 10SM CLR 22/12 A3000 RMK AO2 SLP152 T02170122 $
KSSF 230053Z 12005KT 10SM CLR 23/12 A2998 RMK AO2 SLP147 T02280122 $
KSSF 222353Z 08005KT 10SM CLR 27/09 A2997 RMK AO2 SLP140 T02720089 10283 20233 55011 $
KSSF 222253Z 07006KT 10SM CLR 27/08 A2996 RMK AO2 SLP138 T02720078 $
KSSF 222153Z 00000KT 10SM CLR 28/09 A2997 RMK AO2 SLP140 T02780089 $
KSSF 222053Z VRB04KT 10SM CLR 27/10 A3000 RMK AO2 SLP150 T02720100 58029 $
KSSF 221953Z 30004KT 10SM CLR 26/09 A3004 RMK AO2 SLP163 T02610094 $
KSSF 221853Z 32008KT 300V360 10SM CLR 25/09 A3006 RMK AO2 SLP171 T02500094 $
KSSF 221753Z 02005KT 10SM CLR 23/10 A3009 RMK AO2 SLP180 T02330100 10233 20144 58006 $
KSSF 221653Z VRB06KT 10SM CLR 22/10 A3011 RMK AO2 SLP190 T02220100 $